Adams, Oklahoma
Current Conditions -  °F | °C
As of 1:55 AM on Saturday 29 Nov 2014 (Local Time) from KLBL Reporting Station
Clear Clear  
Wind Chill: 33°   Ceiling: Unl
Heat Index: 39°   Visibility: 10mi
Dew Point: 16°   Wind: 9mph
Humidity: 39%   Direction: 260°W
Pressure: 29.71"   Gusts: NA
Location:  36.76°N, 101.08°W
Report Text: KLBL 290755Z AUTO 26008KT 10SM CLR 04/M09 A2971 RMK AO1
Loading
Personal Weather Stations






























Interactive Weather Map New forecast layout! Learn more

10-Day Weather Forecast

Advertisements
Track Severe Weather on mobile